Time;durP1;ratioP1;P1;durP2;ratioP2;P2;SDS_P1;SDS_P2;PMS_P1;PMS_P2;Temp;Humidity;BMP_temperature;BMP_pressure;BME280_temperature;BME280_humidity;BME280_pressure;Samples;Min_cycle;Max_cycle;Signal;HPM_P1;HPM_P2
2023/03/10 00:01:41;;;;;;;;;;;7.90;99.90;;;;;;4944019;28;19933;-73
2023/03/10 00:04:08;;;;;;;;;;;7.90;99.90;;;;;;4947098;28;20356;-73
2023/03/10 00:06:36;;;;;;;;;;;7.90;99.90;;;;;;4950320;28;19934;-73
2023/03/10 00:09:03;;;;;;;;;;;7.90;99.90;;;;;;4946680;28;19934;-73
2023/03/10 00:11:30;;;;;;;;;;;7.80;99.90;;;;;;4948961;28;19926;-74
2023/03/10 00:13:58;;;;;;;;;;;7.80;99.90;;;;;;4945802;28;19930;-73
2023/03/10 00:16:26;;;;;;;;;;;7.80;99.90;;;;;;4949622;28;19981;-73
2023/03/10 00:18:53;;;;;;;;;;;7.80;99.90;;;;;;4942889;28;19933;-75
2023/03/10 00:21:21;;;;;;;;;;;7.80;99.90;;;;;;4947038;28;19933;-73
2023/03/10 00:23:48;;;;;;;;;;;7.80;99.90;;;;;;4945268;28;20420;-73
2023/03/10 00:26:16;;;;;;;;;;;7.80;99.90;;;;;;4944890;28;19961;-74
2023/03/10 00:28:42;;;;;;;;;;;7.80;99.90;;;;;;4960721;28;19965;-73
2023/03/10 00:31:12;;;;;;;;;;;7.80;99.90;;;;;;4948500;28;19927;-73
2023/03/10 00:33:39;;;;;;;;;;;7.70;99.90;;;;;;4960556;28;19937;-73
2023/03/10 00:36:09;;;;;;;;;;;7.70;99.90;;;;;;4948581;28;19949;-73
2023/03/10 00:38:36;;;;;;;;;;;7.70;99.90;;;;;;4962514;28;19930;-73
2023/03/10 00:41:05;;;;;;;;;;;7.70;99.90;;;;;;4958052;28;20325;-73
2023/03/10 00:43:32;;;;;;;;;;;7.70;99.90;;;;;;4959340;28;19941;-76
2023/03/10 00:45:59;;;;;;;;;;;7.70;99.90;;;;;;4963704;28;19930;-72
2023/03/10 00:48:27;;;;;;;;;;;7.70;99.90;;;;;;4945224;28;19932;-74
2023/03/10 00:50:54;;;;;;;;;;;7.70;99.90;;;;;;4945792;28;19934;-73
2023/03/10 00:53:21;;;;;;;;;;;7.70;99.90;;;;;;4960498;28;19926;-73
2023/03/10 00:55:58;;;;;;;;;;;7.60;99.90;;;;;;4960326;28;19934;-73
2023/03/10 00:58:25;;;;;;;;;;;7.70;99.90;;;;;;4947669;28;20308;-73
2023/03/10 01:00:53;;;;;;;;;;;7.60;99.90;;;;;;4945400;28;20445;-75
2023/03/10 01:03:20;;;;;;;;;;;7.60;99.90;;;;;;4948995;28;19930;-73
2023/03/10 01:05:49;;;;;;;;;;;7.60;99.90;;;;;;4957761;28;19933;-73
2023/03/10 01:08:16;;;;;;;;;;;7.60;99.90;;;;;;4950182;28;19926;-74
2023/03/10 01:10:43;;;;;;;;;;;7.60;99.90;;;;;;4951228;28;19927;-76
2023/03/10 01:13:10;;;;;;;;;;;7.60;99.90;;;;;;4939915;28;19978;-72
2023/03/10 01:15:37;;;;;;;;;;;7.60;99.90;;;;;;4943367;28;19927;-73
2023/03/10 01:18:04;;;;;;;;;;;7.50;99.90;;;;;;4959257;28;19942;-72
2023/03/10 01:20:31;;;;;;;;;;;7.50;99.90;;;;;;4957107;28;20286;-73
2023/03/10 01:23:00;;;;;;;;;;;7.50;99.90;;;;;;4953598;28;20393;-75
2023/03/10 01:25:27;;;;;;;;;;;7.50;99.90;;;;;;4958277;28;20832;-73
2023/03/10 01:27:54;;;;;;;;;;;7.50;99.90;;;;;;4947289;28;19930;-75
2023/03/10 01:30:21;;;;;;;;;;;7.50;99.90;;;;;;4957717;28;19981;-74
2023/03/10 01:32:48;;;;;;;;;;;7.50;99.90;;;;;;4945208;28;19962;-74
2023/03/10 01:35:15;;;;;;;;;;;7.50;99.90;;;;;;4953474;28;19934;-74
2023/03/10 01:37:42;;;;;;;;;;;7.40;99.90;;;;;;4962696;28;19988;-72
2023/03/10 01:40:15;;;;;;;;;;;7.40;99.90;;;;;;4962967;28;19934;-74
2023/03/10 01:42:42;;;;;;;;;;;7.40;99.90;;;;;;4954585;28;19935;-73
2023/03/10 01:45:10;;;;;;;;;;;7.50;99.90;;;;;;4947922;28;19970;-73
2023/03/10 01:47:37;;;;;;;;;;;7.40;99.90;;;;;;4964862;28;19934;-75
2023/03/10 01:50:06;;;;;;;;;;;7.40;99.90;;;;;;4959910;28;19927;-74
2023/03/10 01:52:34;;;;;;;;;;;7.40;99.90;;;;;;4959746;28;19927;-76
2023/03/10 01:55:04;;;;;;;;;;;7.40;99.90;;;;;;4940872;28;20463;-75
2023/03/10 01:57:35;;;;;;;;;;;7.40;99.90;;;;;;4959156;28;21161;-74
2023/03/10 02:00:03;;;;;;;;;;;7.40;99.90;;;;;;4942890;28;20369;-73
2023/03/10 02:02:33;;;;;;;;;;;7.40;99.90;;;;;;4942088;28;19935;-73
2023/03/10 02:05:00;;;;;;;;;;;7.30;99.90;;;;;;4957764;28;20029;-73
2023/03/10 02:07:32;;;;;;;;;;;7.30;99.90;;;;;;4935421;28;20504;-73
2023/03/10 02:09:59;;;;;;;;;;;7.30;99.90;;;;;;4960491;28;19938;-72
2023/03/10 02:12:26;;;;;;;;;;;7.40;99.90;;;;;;4957377;28;19927;-73
2023/03/10 02:14:54;;;;;;;;;;;7.30;99.90;;;;;;4942695;28;19934;-73
2023/03/10 02:17:22;;;;;;;;;;;7.30;99.90;;;;;;4935097;28;19926;-76
2023/03/10 02:20:04;;;;;;;;;;;7.30;99.90;;;;;;4939221;28;19926;-72
2023/03/10 02:22:31;;;;;;;;;;;7.30;99.90;;;;;;4937939;28;19934;-72
2023/03/10 02:25:03;;;;;;;;;;;7.30;99.90;;;;;;4939501;28;19926;-74
2023/03/10 02:27:33;;;;;;;;;;;7.30;99.90;;;;;;4942744;28;19930;-74
2023/03/10 02:30:02;;;;;;;;;;;7.30;99.90;;;;;;4943008;28;19989;-74
2023/03/10 02:32:35;;;;;;;;;;;7.30;99.90;;;;;;4955830;28;19989;-73
2023/03/10 02:35:02;;;;;;;;;;;7.30;99.90;;;;;;4951888;28;19930;-73
2023/03/10 02:37:31;;;;;;;;;;;7.30;99.90;;;;;;4955387;28;19931;-75
2023/03/10 02:39:58;;;;;;;;;;;7.30;99.90;;;;;;4940538;28;19991;-76
2023/03/10 02:42:28;;;;;;;;;;;7.30;99.90;;;;;;4952307;28;19926;-73
2023/03/10 02:44:56;;;;;;;;;;;7.30;99.90;;;;;;4953890;28;19934;-73
2023/03/10 02:47:23;;;;;;;;;;;7.30;99.90;;;;;;4947845;28;19934;-73
2023/03/10 02:49:50;;;;;;;;;;;7.30;99.90;;;;;;4943715;28;19931;-74
2023/03/10 02:52:25;;;;;;;;;;;7.30;99.90;;;;;;4944194;28;20024;-73
2023/03/10 02:54:52;;;;;;;;;;;7.30;99.90;;;;;;4938473;28;19926;-75
2023/03/10 02:57:19;;;;;;;;;;;7.30;99.90;;;;;;4938636;28;19937;-74
2023/03/10 02:59:45;;;;;;;;;;;7.30;99.90;;;;;;4956354;28;20013;-75
2023/03/10 03:02:14;;;;;;;;;;;7.30;99.90;;;;;;4944045;28;19937;-73
2023/03/10 03:04:40;;;;;;;;;;;7.30;99.90;;;;;;4948340;28;20057;-73
2023/03/10 03:07:07;;;;;;;;;;;7.30;99.90;;;;;;4955963;28;19969;-76
2023/03/10 03:09:35;;;;;;;;;;;7.30;99.90;;;;;;4957411;28;19953;-76
2023/03/10 03:12:02;;;;;;;;;;;7.30;99.90;;;;;;4963886;28;19978;-73
2023/03/10 03:14:29;;;;;;;;;;;7.40;99.90;;;;;;4962846;28;19953;-73
2023/03/10 03:16:57;;;;;;;;;;;7.40;99.90;;;;;;4947645;28;19935;-73
2023/03/10 03:19:25;;;;;;;;;;;7.40;99.90;;;;;;4963705;28;19926;-74
2023/03/10 03:21:53;;;;;;;;;;;7.40;99.90;;;;;;4962750;28;20341;-73
2023/03/10 03:24:20;;;;;;;;;;;7.40;99.90;;;;;;4958707;28;20064;-74
2023/03/10 03:26:47;;;;;;;;;;;7.40;99.90;;;;;;4963159;28;20383;-76
2023/03/10 03:29:18;;;;;;;;;;;7.50;99.90;;;;;;4948918;28;19938;-73
2023/03/10 03:31:45;;;;;;;;;;;7.50;99.90;;;;;;4947021;28;19926;-74
2023/03/10 03:34:19;;;;;;;;;;;7.50;99.90;;;;;;4943413;28;19935;-73
2023/03/10 03:36:48;;;;;;;;;;;7.50;99.90;;;;;;4945458;28;19970;-73
2023/03/10 03:39:20;;;;;;;;;;;7.50;99.90;;;;;;4965306;28;19930;-75
2023/03/10 03:41:52;;;;;;;;;;;7.50;99.90;;;;;;4945371;28;20479;-73
2023/03/10 03:44:19;;;;;;;;;;;7.50;99.90;;;;;;4963812;28;19949;-73
2023/03/10 03:46:46;;;;;;;;;;;7.50;99.90;;;;;;4950872;28;19934;-73
2023/03/10 03:49:13;;;;;;;;;;;7.60;99.90;;;;;;4947846;28;19927;-76
2023/03/10 03:51:41;;;;;;;;;;;7.60;99.90;;;;;;4949420;28;20021;-73
2023/03/10 03:54:09;;;;;;;;;;;7.60;99.90;;;;;;4944578;28;20195;-74
2023/03/10 03:56:38;;;;;;;;;;;7.50;99.90;;;;;;4961982;28;20329;-76
2023/03/10 03:59:06;;;;;;;;;;;7.60;99.90;;;;;;4949832;28;19933;-73
2023/03/10 04:01:33;;;;;;;;;;;7.60;99.90;;;;;;4954264;28;20365;-73
2023/03/10 04:04:01;;;;;;;;;;;7.60;99.90;;;;;;4965077;28;19989;-73
2023/03/10 04:06:28;;;;;;;;;;;7.60;99.90;;;;;;4946165;28;19933;-73
2023/03/10 04:08:55;;;;;;;;;;;7.60;99.90;;;;;;4960603;28;19934;-73
2023/03/10 04:11:25;;;;;;;;;;;7.60;99.90;;;;;;4961985;28;21337;-74
2023/03/10 04:13:52;;;;;;;;;;;7.60;99.90;;;;;;4960811;28;19934;-73
2023/03/10 04:16:20;;;;;;;;;;;7.60;99.90;;;;;;4959407;28;20412;-76
2023/03/10 04:18:47;;;;;;;;;;;7.60;99.90;;;;;;4946439;28;20021;-75
2023/03/10 04:21:16;;;;;;;;;;;7.60;99.90;;;;;;4941443;28;19934;-75
2023/03/10 04:23:45;;;;;;;;;;;7.60;99.90;;;;;;4943145;28;20595;-73
2023/03/10 04:26:15;;;;;;;;;;;7.60;99.90;;;;;;4963482;28;20018;-74
2023/03/10 04:28:44;;;;;;;;;;;7.60;99.90;;;;;;4962919;28;19932;-73
2023/03/10 04:31:14;;;;;;;;;;;7.60;99.90;;;;;;4955095;28;20005;-77
2023/03/10 04:33:41;;;;;;;;;;;7.60;99.90;;;;;;4945839;28;19989;-74
2023/03/10 04:36:08;;;;;;;;;;;7.60;99.90;;;;;;4962703;28;20016;-73
2023/03/10 04:38:36;;;;;;;;;;;7.60;99.90;;;;;;4963200;28;20396;-74
2023/03/10 04:41:04;;;;;;;;;;;7.60;99.90;;;;;;4944272;28;20022;-74
2023/03/10 04:43:35;;;;;;;;;;;7.60;99.90;;;;;;4949314;28;20470;-73
2023/03/10 04:46:03;;;;;;;;;;;7.60;99.90;;;;;;4962656;28;19945;-74
2023/03/10 04:48:30;;;;;;;;;;;7.60;99.90;;;;;;4942570;28;19926;-73
2023/03/10 04:50:57;;;;;;;;;;;7.60;99.90;;;;;;4965427;28;19948;-73
2023/03/10 04:53:26;;;;;;;;;;;7.60;99.90;;;;;;4942006;28;20492;-73
2023/03/10 04:55:52;;;;;;;;;;;7.60;99.90;;;;;;4960658;28;19974;-73
2023/03/10 04:58:20;;;;;;;;;;;7.60;99.90;;;;;;4958007;28;19934;-74
2023/03/10 05:00:47;;;;;;;;;;;7.60;99.90;;;;;;4959696;28;19934;-73
2023/03/10 05:03:16;;;;;;;;;;;7.60;99.90;;;;;;4964143;28;19977;-76
2023/03/10 05:05:43;;;;;;;;;;;7.60;99.90;;;;;;4942887;28;19926;-75
2023/03/10 05:08:10;;;;;;;;;;;7.60;99.90;;;;;;4961253;28;19926;-74
2023/03/10 05:10:39;;;;;;;;;;;7.60;99.90;;;;;;4961669;28;20440;-73
2023/03/10 05:13:11;;;;;;;;;;;7.60;99.90;;;;;;4956090;28;20436;-76
2023/03/10 05:15:38;;;;;;;;;;;7.60;99.90;;;;;;4964573;28;19933;-73
2023/03/10 05:18:05;;;;;;;;;;;7.60;99.90;;;;;;4945884;28;20498;-74
2023/03/10 05:20:34;;;;;;;;;;;7.60;99.90;;;;;;4946680;28;19958;-76
2023/03/10 05:23:01;;;;;;;;;;;7.60;99.90;;;;;;4940424;28;20298;-73
2023/03/10 05:25:28;;;;;;;;;;;7.60;99.90;;;;;;4949712;28;20464;-73
2023/03/10 05:27:55;;;;;;;;;;;7.60;99.90;;;;;;4959867;28;19930;-73
2023/03/10 05:30:22;;;;;;;;;;;7.60;99.90;;;;;;4945087;28;20029;-74
2023/03/10 05:32:52;;;;;;;;;;;7.60;99.90;;;;;;4961456;28;20369;-73
2023/03/10 05:35:19;;;;;;;;;;;7.60;99.90;;;;;;4946774;28;19966;-74
2023/03/10 05:37:48;;;;;;;;;;;7.60;99.90;;;;;;4959108;28;19989;-74
2023/03/10 05:40:18;;;;;;;;;;;7.60;99.90;;;;;;4964213;28;19937;-73
2023/03/10 05:42:45;;;;;;;;;;;7.60;99.90;;;;;;4959058;28;19970;-73
2023/03/10 05:45:13;;;;;;;;;;;7.60;99.90;;;;;;4957921;28;20043;-73
2023/03/10 05:47:39;;;;;;;;;;;7.60;99.90;;;;;;4958262;28;20392;-76
2023/03/10 05:50:07;;;;;;;;;;;7.60;99.90;;;;;;4956404;28;20393;-75
2023/03/10 05:52:36;;;;;;;;;;;7.60;99.90;;;;;;4958819;28;19926;-73
2023/03/10 05:55:05;;;;;;;;;;;7.60;99.90;;;;;;4954505;28;19935;-76
2023/03/10 05:57:34;;;;;;;;;;;7.60;99.90;;;;;;4953700;28;20353;-73
2023/03/10 06:00:01;;;;;;;;;;;7.60;99.90;;;;;;4939683;28;20020;-73
2023/03/10 06:02:29;;;;;;;;;;;7.60;99.90;;;;;;4944447;28;19934;-73
2023/03/10 06:04:56;;;;;;;;;;;7.60;99.90;;;;;;4939001;28;20060;-74
2023/03/10 06:07:23;;;;;;;;;;;7.60;99.90;;;;;;4942653;28;20009;-73
2023/03/10 06:09:52;;;;;;;;;;;7.60;99.90;;;;;;4943628;28;19938;-74
2023/03/10 06:12:21;;;;;;;;;;;7.60;99.90;;;;;;4952464;28;19934;-74
2023/03/10 06:14:47;;;;;;;;;;;7.60;99.90;;;;;;4951402;28;20423;-78
2023/03/10 06:17:14;;;;;;;;;;;7.60;99.90;;;;;;4942418;28;20408;-77
2023/03/10 06:19:41;;;;;;;;;;;7.60;99.90;;;;;;4934869;28;20070;-76
2023/03/10 06:22:08;;;;;;;;;;;7.60;99.90;;;;;;4938687;28;19953;-74
2023/03/10 06:24:35;;;;;;;;;;;7.60;99.90;;;;;;4939234;28;19934;-75
2023/03/10 06:27:02;;;;;;;;;;;7.60;99.90;;;;;;4950093;28;19926;-73
2023/03/10 06:29:33;;;;;;;;;;;7.60;99.90;;;;;;4946161;28;19938;-75
2023/03/10 06:32:00;;;;;;;;;;;7.60;99.90;;;;;;4945065;28;19926;-73
2023/03/10 06:34:27;;;;;;;;;;;7.60;99.90;;;;;;4949083;28;19988;-74
2023/03/10 06:36:54;;;;;;;;;;;7.60;99.90;;;;;;4939760;28;19981;-74
2023/03/10 06:39:21;;;;;;;;;;;7.60;99.90;;;;;;4943357;28;19957;-73
2023/03/10 06:41:48;;;;;;;;;;;7.60;99.90;;;;;;4951779;28;19962;-73
2023/03/10 06:44:17;;;;;;;;;;;7.60;99.90;;;;;;4948554;28;20454;-76
2023/03/10 06:46:45;;;;;;;;;;;7.60;99.90;;;;;;4957436;28;19977;-74
2023/03/10 06:49:12;;;;;;;;;;;7.50;99.90;;;;;;4945644;28;20020;-73
2023/03/10 06:51:39;;;;;;;;;;;7.50;99.90;;;;;;4952037;28;19962;-75
2023/03/10 06:54:06;;;;;;;;;;;7.50;99.90;;;;;;4944072;28;19927;-74
2023/03/10 06:56:33;;;;;;;;;;;7.50;99.90;;;;;;4948991;28;20416;-72
2023/03/10 06:59:00;;;;;;;;;;;7.50;99.90;;;;;;4948878;28;20354;-74
2023/03/10 07:01:27;;;;;;;;;;;7.50;99.90;;;;;;4946364;28;19962;-74
2023/03/10 07:03:55;;;;;;;;;;;7.50;99.90;;;;;;4946865;28;20397;-73
2023/03/10 07:06:22;;;;;;;;;;;7.50;99.90;;;;;;4948049;28;20362;-73
2023/03/10 07:08:50;;;;;;;;;;;7.50;99.90;;;;;;4949541;28;19927;-73
2023/03/10 07:11:16;;;;;;;;;;;7.50;99.90;;;;;;4944726;28;19934;-75
2023/03/10 07:13:43;;;;;;;;;;;7.50;99.90;;;;;;4947302;28;19982;-74
2023/03/10 07:16:10;;;;;;;;;;;7.50;99.90;;;;;;4957405;28;19933;-74
2023/03/10 07:18:37;;;;;;;;;;;7.50;99.90;;;;;;4951901;28;20566;-74
2023/03/10 07:21:08;;;;;;;;;;;7.50;99.90;;;;;;4943589;28;20715;-75
2023/03/10 07:23:35;;;;;;;;;;;7.50;99.90;;;;;;4963691;28;19931;-73
2023/03/10 07:26:04;;;;;;;;;;;7.50;99.90;;;;;;4951411;28;19977;-73
2023/03/10 07:28:31;;;;;;;;;;;7.50;99.90;;;;;;4947359;28;19926;-73
2023/03/10 07:31:01;;;;;;;;;;;7.50;99.90;;;;;;4948954;28;20321;-73
2023/03/10 07:33:28;;;;;;;;;;;7.50;99.90;;;;;;4951596;28;19988;-74
2023/03/10 07:35:55;;;;;;;;;;;7.50;99.90;;;;;;4962447;28;19978;-73
2023/03/10 07:38:23;;;;;;;;;;;7.50;99.90;;;;;;4951659;28;19957;-73
2023/03/10 07:40:50;;;;;;;;;;;7.60;99.90;;;;;;4948616;28;19930;-74
2023/03/10 07:43:17;;;;;;;;;;;7.50;99.90;;;;;;4949353;28;19926;-74
2023/03/10 07:45:43;;;;;;;;;;;7.60;99.90;;;;;;4951671;28;19930;-74
2023/03/10 07:48:10;;;;;;;;;;;7.60;99.90;;;;;;4951250;28;20352;-73
2023/03/10 07:50:37;;;;;;;;;;;7.60;99.90;;;;;;4951903;28;20294;-74
2023/03/10 07:53:04;;;;;;;;;;;7.60;99.90;;;;;;4947875;28;19934;-74
2023/03/10 07:55:32;;;;;;;;;;;7.60;99.90;;;;;;4952477;28;20000;-73
2023/03/10 07:58:00;;;;;;;;;;;7.70;99.90;;;;;;4949553;28;20021;-73
2023/03/10 08:00:26;;;;;;;;;;;7.70;99.90;;;;;;4951702;28;19936;-73
2023/03/10 08:02:53;;;;;;;;;;;7.70;99.90;;;;;;4948391;28;20635;-73
2023/03/10 08:05:20;;;;;;;;;;;7.70;99.90;;;;;;4951344;28;20397;-73
2023/03/10 08:07:47;;;;;;;;;;;7.70;99.90;;;;;;4967071;28;19958;-74
2023/03/10 08:10:14;;;;;;;;;;;7.80;99.90;;;;;;4947310;28;20297;-73
2023/03/10 08:12:42;;;;;;;;;;;7.80;99.90;;;;;;4965431;28;20029;-73
2023/03/10 08:15:10;;;;;;;;;;;7.80;99.90;;;;;;4952378;28;19927;-74
2023/03/10 08:17:37;;;;;;;;;;;7.80;99.90;;;;;;4951822;28;20024;-73
2023/03/10 08:20:05;;;;;;;;;;;7.90;99.90;;;;;;4949804;28;20355;-76
2023/03/10 08:22:32;;;;;;;;;;;7.90;99.90;;;;;;4962229;28;19930;-75
2023/03/10 08:24:59;;;;;;;;;;;7.90;99.90;;;;;;4965914;28;19927;-73
2023/03/10 08:27:26;;;;;;;;;;;7.90;99.90;;;;;;4949586;28;20927;-74
2023/03/10 08:29:54;;;;;;;;;;;7.90;99.90;;;;;;4967608;28;20009;-75
2023/03/10 08:32:21;;;;;;;;;;;7.90;99.90;;;;;;4948981;28;19926;-74
2023/03/10 08:34:47;;;;;;;;;;;7.90;99.90;;;;;;4953930;28;19977;-73
2023/03/10 08:37:14;;;;;;;;;;;8.00;99.90;;;;;;4946523;28;20303;-74
2023/03/10 08:39:41;;;;;;;;;;;8.00;99.90;;;;;;4946358;28;19942;-73
2023/03/10 08:42:09;;;;;;;;;;;8.00;99.90;;;;;;4963889;28;20010;-75
2023/03/10 08:44:36;;;;;;;;;;;8.00;99.90;;;;;;4948516;28;20355;-75
2023/03/10 08:47:04;;;;;;;;;;;8.00;99.90;;;;;;4951435;28;20461;-73
2023/03/10 08:49:31;;;;;;;;;;;8.00;99.90;;;;;;4947854;28;19926;-74
2023/03/10 08:51:58;;;;;;;;;;;8.00;99.90;;;;;;4952730;28;20347;-73
2023/03/10 08:54:25;;;;;;;;;;;8.00;99.90;;;;;;4951684;28;20393;-74
2023/03/10 08:56:52;;;;;;;;;;;8.00;99.90;;;;;;4942018;28;20396;-75
2023/03/10 08:59:19;;;;;;;;;;;7.90;99.90;;;;;;4948654;28;19931;-73
2023/03/10 09:01:47;;;;;;;;;;;7.90;99.90;;;;;;4945742;28;19927;-74
2023/03/10 09:04:15;;;;;;;;;;;7.90;99.90;;;;;;4949315;28;19930;-74
2023/03/10 09:06:42;;;;;;;;;;;8.00;99.90;;;;;;4945779;28;19945;-74
2023/03/10 09:09:10;;;;;;;;;;;8.00;99.90;;;;;;4951649;28;20316;-73
2023/03/10 09:11:38;;;;;;;;;;;7.90;99.90;;;;;;4947490;28;19930;-73
2023/03/10 09:14:06;;;;;;;;;;;7.90;99.90;;;;;;4946410;28;20042;-74
2023/03/10 09:16:33;;;;;;;;;;;7.90;99.90;;;;;;4953807;28;19957;-73
2023/03/10 09:19:00;;;;;;;;;;;7.90;99.90;;;;;;4957747;28;19926;-74
2023/03/10 09:21:29;;;;;;;;;;;7.90;99.90;;;;;;4943379;28;19938;-75
2023/03/10 09:23:56;;;;;;;;;;;7.90;99.90;;;;;;4962888;28;19926;-73
2023/03/10 09:26:23;;;;;;;;;;;7.90;99.90;;;;;;4949007;28;19926;-74
2023/03/10 09:28:51;;;;;;;;;;;7.90;99.90;;;;;;4941916;28;19941;-73
2023/03/10 09:31:19;;;;;;;;;;;7.90;99.90;;;;;;4947863;28;19930;-74
2023/03/10 09:33:46;;;;;;;;;;;7.90;99.90;;;;;;4947670;28;19961;-73
2023/03/10 09:36:13;;;;;;;;;;;7.90;99.90;;;;;;4947352;28;19926;-73
2023/03/10 09:38:41;;;;;;;;;;;7.90;99.90;;;;;;4949323;28;19961;-73
2023/03/10 09:41:17;;;;;;;;;;;7.90;99.90;;;;;;4948141;28;19927;-73
2023/03/10 09:43:49;;;;;;;;;;;7.90;99.90;;;;;;4949548;28;19930;-71
2023/03/10 09:46:20;;;;;;;;;;;7.90;99.90;;;;;;4947692;28;19934;-71
2023/03/10 09:48:50;;;;;;;;;;;8.00;99.90;;;;;;4947480;28;19962;-71
2023/03/10 09:51:18;;;;;;;;;;;7.90;99.90;;;;;;4949722;28;19976;-71
2023/03/10 09:54:03;;;;;;;;;;;7.90;99.90;;;;;;4949044;28;19926;-71
2023/03/10 09:56:31;;;;;;;;;;;7.90;99.90;;;;;;4944018;28;19934;-71
2023/03/10 09:58:59;;;;;;;;;;;7.90;99.90;;;;;;4949788;28;19973;-71
2023/03/10 10:01:27;;;;;;;;;;;7.90;99.90;;;;;;4949497;29;20001;-72
2023/03/10 10:03:56;;;;;;;;;;;8.00;99.90;;;;;;4945731;28;19926;-71
2023/03/10 10:06:24;;;;;;;;;;;8.00;99.90;;;;;;4946026;28;19933;-71
2023/03/10 10:08:53;;;;;;;;;;;8.00;99.90;;;;;;4943433;28;19973;-71
2023/03/10 10:11:21;;;;;;;;;;;8.00;99.90;;;;;;4948175;28;19985;-71
2023/03/10 10:14:05;;;;;;;;;;;8.00;99.90;;;;;;4947417;28;20001;-71
2023/03/10 10:16:34;;;;;;;;;;;8.00;99.90;;;;;;4950083;28;19926;-71
2023/03/10 10:19:03;;;;;;;;;;;8.00;99.90;;;;;;4942202;28;20384;-71
2023/03/10 10:21:35;;;;;;;;;;;8.00;99.90;;;;;;4944019;28;20384;-71
2023/03/10 10:24:02;;;;;;;;;;;8.00;99.90;;;;;;4946589;28;20396;-71
2023/03/10 10:26:30;;;;;;;;;;;8.10;99.90;;;;;;4941778;28;19930;-71
2023/03/10 10:28:58;;;;;;;;;;;8.10;99.90;;;;;;4962576;28;19927;-71
2023/03/10 10:31:26;;;;;;;;;;;8.10;99.90;;;;;;4945203;28;20408;-71
2023/03/10 10:33:54;;;;;;;;;;;8.10;99.90;;;;;;4945671;28;20065;-71
2023/03/10 10:36:22;;;;;;;;;;;8.10;99.90;;;;;;4960673;28;19930;-72
2023/03/10 10:38:50;;;;;;;;;;;8.10;99.90;;;;;;4944791;28;19930;-71
2023/03/10 10:41:18;;;;;;;;;;;8.10;99.90;;;;;;4940186;28;19926;-71
2023/03/10 10:43:47;;;;;;;;;;;8.10;99.90;;;;;;4946873;28;19926;-71
2023/03/10 10:46:15;;;;;;;;;;;8.10;99.90;;;;;;4943515;28;19986;-71
2023/03/10 10:48:44;;;;;;;;;;;8.10;99.90;;;;;;4943360;28;19930;-71
2023/03/10 10:51:21;;;;;;;;;;;8.20;99.90;;;;;;4959362;28;19926;-71
2023/03/10 10:53:48;;;;;;;;;;;8.20;99.90;;;;;;4943628;28;19926;-71
2023/03/10 10:56:15;;;;;;;;;;;8.20;99.90;;;;;;4949544;28;19927;-71
2023/03/10 10:58:42;;;;;;;;;;;8.20;99.90;;;;;;4940578;28;19927;-71
2023/03/10 11:01:12;;;;;;;;;;;8.20;99.90;;;;;;4947148;28;19970;-71
2023/03/10 11:03:40;;;;;;;;;;;8.20;99.90;;;;;;4946265;28;20392;-71
2023/03/10 11:06:14;;;;;;;;;;;8.20;99.90;;;;;;4940956;28;19978;-71
2023/03/10 11:08:43;;;;;;;;;;;8.20;99.90;;;;;;4948009;28;20020;-71
2023/03/10 11:11:18;;;;;;;;;;;8.20;99.90;;;;;;4951655;28;19927;-71
2023/03/10 11:13:52;;;;;;;;;;;8.30;99.90;;;;;;4951061;28;20380;-71
2023/03/10 11:16:22;;;;;;;;;;;8.30;99.90;;;;;;4947101;28;19931;-71
2023/03/10 11:18:52;;;;;;;;;;;8.30;99.90;;;;;;4949092;28;20026;-71
2023/03/10 11:21:23;;;;;;;;;;;8.30;99.90;;;;;;4952388;28;20333;-71
2023/03/10 11:23:52;;;;;;;;;;;8.30;99.90;;;;;;4948025;28;20316;-71
2023/03/10 11:26:24;;;;;;;;;;;8.30;99.90;;;;;;4942926;28;20018;-71
2023/03/10 11:28:53;;;;;;;;;;;8.40;99.90;;;;;;4947192;28;19949;-71
2023/03/10 11:31:32;;;;;;;;;;;8.40;99.90;;;;;;4943996;28;20037;-72
2023/03/10 11:34:05;;;;;;;;;;;8.40;99.90;;;;;;4945698;28;19990;-72
2023/03/10 11:36:35;;;;;;;;;;;8.40;99.90;;;;;;4947466;28;20385;-72
2023/03/10 11:39:06;;;;;;;;;;;8.40;99.90;;;;;;4950251;28;19930;-71
2023/03/10 11:41:37;;;;;;;;;;;8.40;99.90;;;;;;4946481;28;19973;-72
2023/03/10 11:44:09;;;;;;;;;;;8.50;99.90;;;;;;4950409;28;19935;-72
2023/03/10 11:46:39;;;;;;;;;;;8.50;99.90;;;;;;4947110;28;20335;-68
2023/03/10 11:49:06;;;;;;;;;;;8.50;99.90;;;;;;4951224;28;20013;-73
2023/03/10 11:51:35;;;;;;;;;;;8.50;99.90;;;;;;4946291;28;19930;-72
2023/03/10 11:54:04;;;;;;;;;;;8.50;99.90;;;;;;4953647;28;19953;-72
2023/03/10 11:56:31;;;;;;;;;;;8.50;99.90;;;;;;4945245;28;19961;-74
2023/03/10 11:59:00;;;;;;;;;;;8.60;99.90;;;;;;4944803;28;19934;-71
2023/03/10 12:01:29;;;;;;;;;;;8.50;99.90;;;;;;4916509;28;20281;-72
2023/03/10 12:04:00;;;;;;;;;;;8.60;99.90;;;;;;4935039;28;19930;-71
2023/03/10 12:06:32;;;;;;;;;;;8.50;99.90;;;;;;4941455;28;19930;-71
2023/03/10 12:09:01;;;;;;;;;;;8.60;99.90;;;;;;4952614;28;19927;-73
2023/03/10 12:11:29;;;;;;;;;;;8.60;99.90;;;;;;4940497;28;19927;-71
2023/03/10 12:13:57;;;;;;;;;;;8.60;99.90;;;;;;4946504;28;19977;-71
2023/03/10 12:16:26;;;;;;;;;;;8.60;99.90;;;;;;4958367;28;20017;-71
2023/03/10 12:18:53;;;;;;;;;;;8.60;99.90;;;;;;4942981;28;20309;-71
2023/03/10 12:21:22;;;;;;;;;;;8.60;99.90;;;;;;4940669;28;19934;-73
2023/03/10 12:23:50;;;;;;;;;;;8.60;99.90;;;;;;4942931;28;20007;-72
2023/03/10 12:26:32;;;;;;;;;;;8.60;99.90;;;;;;4960281;28;19934;-73
2023/03/10 12:29:22;;;;;;;;;;;8.60;99.90;;;;;;4940059;28;19934;-72
2023/03/10 12:31:50;;;;;;;;;;;8.70;99.90;;;;;;4946195;28;20029;-71
2023/03/10 12:34:21;;;;;;;;;;;8.70;99.90;;;;;;4938646;28;19958;-72
2023/03/10 12:36:50;;;;;;;;;;;8.70;99.90;;;;;;4948726;28;20388;-71
2023/03/10 12:39:31;;;;;;;;;;;8.70;99.90;;;;;;4942300;28;20025;-70
2023/03/10 12:41:58;;;;;;;;;;;8.70;99.90;;;;;;4942876;28;20392;-70
2023/03/10 12:44:29;;;;;;;;;;;8.70;99.90;;;;;;4959527;28;20460;-69
2023/03/10 12:46:59;;;;;;;;;;;8.70;99.90;;;;;;4940702;28;20432;-70
2023/03/10 12:49:32;;;;;;;;;;;8.70;99.90;;;;;;4949324;28;19930;-70
2023/03/10 12:52:18;;;;;;;;;;;8.70;99.90;;;;;;4947778;28;19997;-72
2023/03/10 12:54:48;;;;;;;;;;;8.70;99.90;;;;;;4938934;28;19973;-72
2023/03/10 12:57:17;;;;;;;;;;;8.70;99.90;;;;;;4954188;28;19933;-71
2023/03/10 12:59:51;;;;;;;;;;;8.70;99.90;;;;;;4960426;28;20518;-71
2023/03/10 13:02:24;;;;;;;;;;;8.80;99.90;;;;;;4937208;28;21983;-71
2023/03/10 13:04:53;;;;;;;;;;;8.80;99.90;;;;;;4961393;28;19936;-70
2023/03/10 13:07:22;;;;;;;;;;;8.80;99.90;;;;;;4944335;28;19970;-71
2023/03/10 13:09:49;;;;;;;;;;;8.80;99.90;;;;;;4950847;28;19981;-71
2023/03/10 13:12:18;;;;;;;;;;;8.80;99.90;;;;;;4938325;28;19930;-71
2023/03/10 13:14:45;;;;;;;;;;;8.90;99.90;;;;;;4940391;28;19930;-71
2023/03/10 13:17:22;;;;;;;;;;;8.90;99.90;;;;;;4938059;28;19949;-74
2023/03/10 13:19:59;;;;;;;;;;;8.90;99.90;;;;;;4940950;28;20360;-74
2023/03/10 13:22:27;;;;;;;;;;;8.90;99.90;;;;;;4938562;28;20406;-71
2023/03/10 13:24:58;;;;;;;;;;;8.90;99.90;;;;;;4961697;28;20396;-72
2023/03/10 13:27:29;;;;;;;;;;;8.90;99.90;;;;;;4942537;28;19958;-72
2023/03/10 13:29:56;;;;;;;;;;;8.90;99.90;;;;;;4942034;28;20443;-72
2023/03/10 13:32:23;;;;;;;;;;;8.90;99.90;;;;;;4943023;28;19992;-71
2023/03/10 13:34:50;;;;;;;;;;;8.90;99.90;;;;;;4945333;28;19935;-72
2023/03/10 13:37:17;;;;;;;;;;;8.90;99.90;;;;;;4948951;28;20391;-72
2023/03/10 13:39:45;;;;;;;;;;;8.90;99.90;;;;;;4944362;28;19942;-71
2023/03/10 13:42:19;;;;;;;;;;;8.90;99.90;;;;;;4946756;28;19934;-71
2023/03/10 13:44:47;;;;;;;;;;;8.90;99.90;;;;;;4941433;28;19935;-71
2023/03/10 13:47:15;;;;;;;;;;;8.90;99.90;;;;;;4941304;28;20662;-70
2023/03/10 13:49:45;;;;;;;;;;;8.90;99.90;;;;;;4938426;28;20632;-70
2023/03/10 13:52:13;;;;;;;;;;;8.90;99.90;;;;;;4932611;28;19926;-71
2023/03/10 13:54:41;;;;;;;;;;;8.90;99.90;;;;;;4936363;28;20411;-71
2023/03/10 13:57:10;;;;;;;;;;;8.90;99.90;;;;;;4956121;28;20269;-71
2023/03/10 13:59:37;;;;;;;;;;;8.90;99.90;;;;;;4938219;28;20033;-71
2023/03/10 14:02:05;;;;;;;;;;;8.90;99.90;;;;;;4935799;28;19935;-72
2023/03/10 14:04:39;;;;;;;;;;;8.90;99.90;;;;;;4957325;28;19938;-71
2023/03/10 14:07:06;;;;;;;;;;;8.90;99.90;;;;;;4939191;28;20498;-72
2023/03/10 14:09:33;;;;;;;;;;;8.90;99.90;;;;;;4954374;28;19927;-71
2023/03/10 14:12:00;;;;;;;;;;;8.90;99.90;;;;;;4952665;28;22986;-71
2023/03/10 14:14:29;;;;;;;;;;;8.90;99.90;;;;;;4937401;28;20759;-71
2023/03/10 14:16:57;;;;;;;;;;;8.90;99.90;;;;;;4942183;28;19935;-71
2023/03/10 14:19:56;;;;;;;;;;;8.90;99.90;;;;;;4949547;28;20088;-71
2023/03/10 14:22:30;;;;;;;;;;;8.90;99.90;;;;;;4879918;29;19966;-71
2023/03/10 14:24:58;;;;;;;;;;;8.80;99.90;;;;;;4926207;28;19934;-71
2023/03/10 14:27:25;;;;;;;;;;;8.80;99.90;;;;;;4938012;28;19934;-71
2023/03/10 14:29:56;;;;;;;;;;;8.80;99.90;;;;;;4950717;28;19965;-71
2023/03/10 14:32:23;;;;;;;;;;;8.80;99.90;;;;;;4936177;28;20364;-71
2023/03/10 14:34:50;;;;;;;;;;;8.80;99.90;;;;;;4928003;28;20395;-71
2023/03/10 14:37:17;;;;;;;;;;;8.80;99.90;;;;;;4945351;28;20006;-72
2023/03/10 14:39:44;;;;;;;;;;;8.80;99.90;;;;;;4943387;28;19957;-71